Time;durP1;ratioP1;P1;durP2;ratioP2;P2;SDS_P1;SDS_P2;PMS_P1;PMS_P2;Temp;Humidity;BMP_temperature;BMP_pressure;BME280_temperature;BME280_humidity;BME280_pressure;Samples;Min_cycle;Max_cycle;Signal;HPM_P1;HPM_P2
2021/09/09 08:23:52;;;;;;;15.80;10.77;;;;;;;21.13;48.04;99469.06;10371621;28;20133;-79
2021/09/09 08:28:53;;;;;;;16.42;9.95;;;;;;;21.67;46.45;99462.91;10398245;28;20084;-79
2021/09/09 08:33:56;;;;;;;16.38;10.18;;;;;;;22.07;45.96;99464.56;10401579;28;20460;-79
2021/09/09 08:38:58;;;;;;;14.65;9.27;;;;;;;22.12;45.41;99463.03;10400506;28;20160;-79
2021/09/09 08:43:59;;;;;;;12.50;9.38;;;;;;;22.43;45.25;99474.44;10405117;28;20049;-80
2021/09/09 08:49:01;;;;;;;12.82;9.40;;;;;;;22.54;44.93;99462.53;10400445;28;20155;-79
2021/09/09 08:54:05;;;;;;;14.23;8.85;;;;;;;22.68;44.88;99465.25;10400864;28;20088;-79
2021/09/09 08:59:07;;;;;;;10.15;8.70;;;;;;;22.86;44.38;99459.63;10397217;28;20092;-79
2021/09/09 09:04:11;;;;;;;18.13;9.25;;;;;;;22.87;44.13;99455.94;10396791;28;20069;-79
2021/09/09 09:09:14;;;;;;;15.13;10.35;;;;;;;22.73;44.50;99459.41;10393624;28;20061;-79
2021/09/09 09:14:22;;;;;;;16.63;10.52;;;;;;;22.84;43.86;99447.50;10395597;28;20664;-80
2021/09/09 09:19:46;;;;;;;15.20;9.88;;;;;;;22.94;44.20;99448.91;10398299;28;20065;-81
2021/09/09 09:24:51;;;;;;;14.38;8.93;;;;;;;23.37;43.79;99439.25;10397031;28;20068;-80
2021/09/09 09:30:09;;;;;;;19.60;9.90;;;;;;;23.70;42.64;99443.19;10398322;28;20057;-81
2021/09/09 09:35:14;;;;;;;14.68;9.30;;;;;;;23.63;43.17;99428.09;10398530;28;20076;-81
2021/09/09 09:40:29;;;;;;;14.13;9.18;;;;;;;23.97;43.03;99429.13;10395941;28;20592;-81
2021/09/09 09:45:30;;;;;;;16.02;9.10;;;;;;;24.17;42.67;99422.16;10410551;28;20057;-81
2021/09/09 09:50:41;;;;;;;16.80;9.60;;;;;;;24.33;41.79;99414.91;10391281;28;20080;-81
2021/09/09 09:55:48;;;;;;;15.18;8.57;;;;;;;24.38;41.94;99412.47;10393171;28;20538;-82
2021/09/09 10:00:51;;;;;;;10.52;8.02;;;;;;;24.56;41.75;99415.50;10389723;28;20561;-82
2021/09/09 10:05:54;;;;;;;12.85;7.88;;;;;;;24.80;41.88;99407.09;10395027;28;20053;-81
2021/09/09 10:10:57;;;;;;;13.75;7.90;;;;;;;24.92;41.04;99400.16;10394038;28;20111;-82
2021/09/09 10:15:59;;;;;;;12.80;8.52;;;;;;;25.26;41.35;99402.03;10397288;28;20138;-81
2021/09/09 10:21:07;;;;;;;14.02;7.88;;;;;;;25.53;40.31;99406.50;10397928;28;20639;-82
2021/09/09 10:26:27;;;;;;;15.48;7.63;;;;;;;25.63;40.01;99413.13;10400163;28;20085;-81
2021/09/09 10:31:42;;;;;;;16.75;7.40;;;;;;;25.82;39.81;99419.56;10415891;28;21197;-81
2021/09/09 10:36:49;;;;;;;16.75;7.20;;;;;;;26.45;39.33;99416.41;10403902;28;20490;-81
2021/09/09 10:41:51;;;;;;;15.05;7.03;;;;;;;27.07;38.40;99413.31;10396486;28;20713;-81
2021/09/09 10:46:55;;;;;;;16.83;7.15;;;;;;;27.37;38.12;99411.81;10396272;28;20049;-81
2021/09/09 10:52:12;;;;;;;16.02;7.25;;;;;;;27.30;37.63;99410.19;10395362;28;20581;-81
2021/09/09 10:57:18;;;;;;;12.27;6.88;;;;;;;27.25;38.32;99413.50;10395238;28;20103;-81
2021/09/09 11:02:20;;;;;;;14.02;7.18;;;;;;;27.45;38.76;99408.88;10394221;28;20139;-80
2021/09/09 11:07:29;;;;;;;12.32;7.13;;;;;;;27.39;38.68;99393.63;10408538;28;20057;-81
2021/09/09 11:12:40;;;;;;;11.57;6.30;;;;;;;26.97;39.71;99391.44;10392101;28;20057;-81
2021/09/09 11:17:42;;;;;;;11.68;6.43;;;;;;;26.85;39.23;99394.97;10393695;28;20057;-80
2021/09/09 11:22:44;;;;;;;9.80;6.60;;;;;;;26.82;39.16;99396.22;10393482;28;20059;-80
2021/09/09 11:27:47;;;;;;;15.05;6.40;;;;;;;26.64;39.22;99388.81;10392180;28;20073;-80
2021/09/09 11:33:16;;;;;;;11.45;6.60;;;;;;;26.62;38.59;99390.03;10395923;28;20108;-80
2021/09/09 11:38:38;;;;;;;9.23;6.22;;;;;;;26.50;38.71;99402.41;10399364;28;20519;-80
2021/09/09 11:43:40;;;;;;;9.63;5.53;;;;;;;26.82;38.64;99398.91;10403344;28;20057;-80
2021/09/09 11:48:53;;;;;;;9.57;6.03;;;;;;;27.07;38.32;99405.25;10403352;28;20053;-80
2021/09/09 11:53:55;;;;;;;8.98;5.97;;;;;;;27.59;37.46;99393.53;10403038;28;20062;-80
2021/09/09 11:59:01;;;;;;;11.25;5.55;;;;;;;27.86;36.74;99394.25;10400634;28;20280;-80
2021/09/09 12:04:05;;;;;;;10.02;5.65;;;;;;;28.03;36.64;99395.38;10401467;28;20060;-80
2021/09/09 12:09:08;;;;;;;9.20;5.80;;;;;;;28.11;36.23;99398.66;10400797;28;20068;-81
2021/09/09 12:14:17;;;;;;;10.27;5.50;;;;;;;28.11;36.27;99387.06;10401470;28;20054;-80
2021/09/09 12:19:19;;;;;;;8.63;5.50;;;;;;;27.92;37.04;99388.00;10398313;28;20053;-80
2021/09/09 12:24:29;;;;;;;9.23;5.30;;;;;;;27.82;37.80;99391.16;10397376;28;20156;-80
2021/09/09 12:29:42;;;;;;;8.63;4.80;;;;;;;27.98;37.06;99393.34;10397945;28;20419;-80
2021/09/09 12:34:44;;;;;;;8.57;4.90;;;;;;;28.01;37.32;99390.22;10398965;28;20092;-80
2021/09/09 12:39:47;;;;;;;10.88;4.78;;;;;;;28.13;37.40;99379.59;10402164;28;20053;-80
2021/09/09 12:44:49;;;;;;;7.80;5.00;;;;;;;27.86;37.36;99376.25;10400536;28;20499;-80
2021/09/09 12:49:52;;;;;;;9.25;4.93;;;;;;;27.77;37.67;99380.22;10396116;28;20062;-80
2021/09/09 12:54:54;;;;;;;8.75;5.03;;;;;;;27.55;38.30;99370.81;10398760;28;20057;-80
2021/09/09 13:00:04;;;;;;;9.75;5.40;;;;;;;27.65;38.30;99381.91;10398718;28;20652;-80
2021/09/09 13:05:06;;;;;;;11.30;5.45;;;;;;;27.65;38.30;99373.06;10399057;28;20057;-80
2021/09/09 13:10:09;;;;;;;9.93;5.00;;;;;;;27.75;37.89;99368.06;10398288;28;20155;-80
2021/09/09 13:15:12;;;;;;;11.57;5.07;;;;;;;27.91;37.87;99362.19;10400645;28;20064;-80
2021/09/09 13:20:14;;;;;;;10.02;5.00;;;;;;;27.97;38.29;99364.00;10422141;28;20113;-81
2021/09/09 13:25:16;;;;;;;13.30;4.88;;;;;;;28.26;37.75;99368.72;10408927;28;20053;-81
2021/09/09 13:30:18;;;;;;;11.18;5.05;;;;;;;28.22;37.77;99364.84;10402006;28;20065;-79
2021/09/09 13:35:20;;;;;;;6.93;4.10;;;;;;;28.04;38.01;99364.75;10415429;28;20087;-81
2021/09/09 13:40:22;;;;;;;8.65;3.70;;;;;;;28.32;37.46;99361.72;10401596;28;20057;-80
2021/09/09 13:45:24;;;;;;;7.45;3.50;;;;;;;28.32;37.53;99356.31;10399727;28;20491;-80
2021/09/09 13:50:26;;;;;;;4.50;2.72;;;;;;;28.07;37.40;99350.91;10398096;28;20053;-81
2021/09/09 13:55:28;;;;;;;12.40;2.95;;;;;;;27.97;37.22;99354.06;10396633;28;20050;-81
2021/09/09 14:00:30;;;;;;;8.02;3.10;;;;;;;27.97;37.90;99355.94;10397398;28;20061;-80
2021/09/09 14:05:34;;;;;;;7.30;3.25;;;;;;;27.80;38.15;99357.47;10399203;28;20049;-81
2021/09/09 14:10:36;;;;;;;8.30;3.20;;;;;;;27.58;39.02;99364.19;10398383;28;20423;-80
2021/09/09 14:15:38;;;;;;;7.32;3.08;;;;;;;27.29;40.15;99362.88;10395422;28;20065;-79
2021/09/09 14:20:41;;;;;;;11.18;3.83;;;;;;;27.22;40.41;99373.63;10395259;28;20136;-80
2021/09/09 14:25:43;;;;;;;6.07;3.50;;;;;;;27.14;41.13;99381.06;10395550;28;20631;-80
2021/09/09 14:30:45;;;;;;;8.13;3.50;;;;;;;26.77;41.87;99377.25;10395384;28;20811;-80
2021/09/09 14:35:49;;;;;;;7.90;3.90;;;;;;;26.45;42.60;99378.88;10395678;28;20495;-80
2021/09/09 14:40:51;;;;;;;10.40;3.90;;;;;;;26.47;43.19;99395.59;10396613;28;20071;-80
2021/09/09 14:45:54;;;;;;;9.90;3.75;;;;;;;26.74;42.88;99383.00;10411704;28;20053;-80
2021/09/09 14:50:56;;;;;;;9.00;4.03;;;;;;;26.89;42.29;99383.63;10395666;28;20525;-80
2021/09/09 14:55:58;;;;;;;7.25;3.80;;;;;;;26.82;42.35;99380.13;10395700;28;20059;-80
2021/09/09 15:01:04;;;;;;;9.50;4.07;;;;;;;26.71;42.89;99375.38;10394649;28;20068;-80
2021/09/09 15:06:07;;;;;;;10.48;3.90;;;;;;;26.78;42.71;99373.50;10394826;28;20064;-80
2021/09/09 15:11:09;;;;;;;6.10;4.05;;;;;;;27.22;42.15;99373.63;10396713;28;20061;-80
2021/09/09 15:16:11;;;;;;;7.45;3.55;;;;;;;27.54;41.47;99373.72;10393372;28;20053;-80
2021/09/09 15:21:14;;;;;;;15.88;4.30;;;;;;;27.61;41.03;99372.63;10394658;28;20079;-81
2021/09/09 15:26:17;;;;;;;7.03;3.40;;;;;;;27.52;41.11;99369.38;10394996;28;20061;-80
2021/09/09 15:31:19;;;;;;;11.73;3.67;;;;;;;27.35;41.24;99365.53;10394754;28;20087;-80
2021/09/09 15:36:30;;;;;;;8.63;3.30;;;;;;;27.12;41.75;99370.53;10395981;28;20574;-80
2021/09/09 15:41:32;;;;;;;7.60;2.67;;;;;;;26.93;41.61;99375.97;10393537;28;20085;-80
2021/09/09 15:46:36;;;;;;;8.48;3.13;;;;;;;26.79;41.63;99383.22;10390450;28;20132;-81
2021/09/09 15:51:38;;;;;;;5.90;2.67;;;;;;;26.70;41.65;99368.38;10392630;28;20058;-80
2021/09/09 15:56:40;;;;;;;6.20;2.72;;;;;;;26.53;42.34;99375.97;10392769;28;20108;-80
2021/09/09 16:01:43;;;;;;;7.82;3.08;;;;;;;26.43;42.89;99382.78;10397278;28;20061;-80
2021/09/09 16:06:50;;;;;;;5.38;2.90;;;;;;;26.21;43.54;99382.19;10416162;28;20061;-80
2021/09/09 16:11:56;;;;;;;6.50;2.97;;;;;;;26.09;43.49;99394.53;10396208;28;20097;-80
2021/09/09 16:16:58;;;;;;;7.85;2.85;;;;;;;25.89;44.16;99399.81;10391039;28;20169;-79
2021/09/09 16:22:01;;;;;;;8.23;2.85;;;;;;;25.73;44.40;99402.06;10392454;28;21010;-79
2021/09/09 16:27:03;;;;;;;8.00;2.92;;;;;;;25.61;44.60;99407.13;10398106;28;20883;-79
2021/09/09 16:32:05;;;;;;;6.60;3.13;;;;;;;25.69;44.53;99406.97;10398878;28;20084;-79
2021/09/09 16:37:07;;;;;;;7.10;3.10;;;;;;;25.65;44.76;99408.38;10399795;28;20518;-79
2021/09/09 16:42:11;;;;;;;8.98;2.80;;;;;;;25.49;45.17;99400.72;10398327;28;20708;-79
2021/09/09 16:47:12;;;;;;;7.10;3.20;;;;;;;25.34;45.57;99402.72;10398056;28;20046;-79
2021/09/09 16:52:14;;;;;;;6.93;2.92;;;;;;;25.34;45.43;99400.03;10397692;28;20594;-78
2021/09/09 16:57:16;;;;;;;8.27;2.90;;;;;;;25.22;46.07;99401.59;10398343;28;20096;-78
2021/09/09 17:02:24;;;;;;;7.60;3.03;;;;;;;25.17;46.28;99392.50;10399189;28;20064;-79
2021/09/09 17:07:26;;;;;;;7.50;2.70;;;;;;;25.10;46.23;99392.47;10398346;28;20054;-79
2021/09/09 17:12:28;;;;;;;10.23;2.90;;;;;;;25.04;46.42;99393.25;10399430;28;20065;-79
2021/09/09 17:17:34;;;;;;;6.00;2.50;;;;;;;24.98;46.83;99394.03;10396935;28;20111;-80
2021/09/09 17:22:37;;;;;;;7.07;2.70;;;;;;;24.82;47.09;99395.16;10411131;28;20531;-81
2021/09/09 17:27:43;;;;;;;9.40;2.60;;;;;;;24.78;47.26;99396.59;10399584;28;20084;-84
2021/09/09 17:32:51;;;;;;;7.20;3.15;;;;;;;24.70;47.49;99398.53;10399373;28;20467;-83
2021/09/09 17:37:53;;;;;;;12.40;3.15;;;;;;;24.57;47.90;99395.78;10398848;28;20107;-83
2021/09/09 17:42:55;;;;;;;7.63;2.90;;;;;;;24.49;48.58;99407.44;10397783;28;20049;-84
2021/09/09 17:47:57;;;;;;;6.35;3.00;;;;;;;24.36;48.48;99403.81;10397961;28;20069;-84
2021/09/09 17:53:00;;;;;;;8.80;3.10;;;;;;;24.29;48.64;99417.13;10399389;28;20119;-84
